sensor_id;sensor_type;location;lat;lon;timestamp;pressure;altitude;pressure_sealevel;temperature;humidity
50380;BME280;37474;59.468;18.040;2023-02-15T00:01:52;102772.69;;;1.22;100.00
50380;BME280;37474;59.468;18.040;2023-02-15T00:04:25;102769.31;;;1.23;100.00
50380;BME280;37474;59.468;18.040;2023-02-15T00:07:14;102770.50;;;1.40;100.00
50380;BME280;37474;59.468;18.040;2023-02-15T00:09:45;102762.66;;;1.32;100.00
50380;BME280;37474;59.468;18.040;2023-02-15T00:12:14;102756.00;;;1.39;100.00
50380;BME280;37474;59.468;18.040;2023-02-15T00:14:44;102763.50;;;1.31;100.00
50380;BME280;37474;59.468;18.040;2023-02-15T00:17:12;102761.06;;;1.38;100.00
50380;BME280;37474;59.468;18.040;2023-02-15T00:19:44;102753.50;;;1.42;100.00
50380;BME280;37474;59.468;18.040;2023-02-15T00:22:16;102745.50;;;1.25;100.00
50380;BME280;37474;59.468;18.040;2023-02-15T00:24:44;102748.91;;;1.26;100.00
50380;BME280;37474;59.468;18.040;2023-02-15T00:27:11;102744.97;;;1.42;100.00
50380;BME280;37474;59.468;18.040;2023-02-15T00:29:46;102747.66;;;1.49;100.00
50380;BME280;37474;59.468;18.040;2023-02-15T00:32:13;102746.00;;;1.51;100.00
50380;BME280;37474;59.468;18.040;2023-02-15T00:34:41;102754.47;;;1.49;100.00
50380;BME280;37474;59.468;18.040;2023-02-15T00:37:14;102753.78;;;1.57;100.00
50380;BME280;37474;59.468;18.040;2023-02-15T00:39:42;102753.72;;;1.54;100.00
50380;BME280;37474;59.468;18.040;2023-02-15T00:42:10;102742.44;;;1.43;100.00
50380;BME280;37474;59.468;18.040;2023-02-15T00:44:42;102745.06;;;1.46;100.00
50380;BME280;37474;59.468;18.040;2023-02-15T00:47:10;102744.28;;;1.50;100.00
50380;BME280;37474;59.468;18.040;2023-02-15T00:49:37;102747.75;;;1.54;100.00
50380;BME280;37474;59.468;18.040;2023-02-15T00:52:09;102744.97;;;1.42;100.00
50380;BME280;37474;59.468;18.040;2023-02-15T00:54:38;102737.06;;;1.29;100.00
50380;BME280;37474;59.468;18.040;2023-02-15T00:57:06;102737.13;;;1.32;100.00
50380;BME280;37474;59.468;18.040;2023-02-15T00:59:38;102731.03;;;1.26;100.00
50380;BME280;37474;59.468;18.040;2023-02-15T01:02:06;102733.16;;;1.48;100.00
50380;BME280;37474;59.468;18.040;2023-02-15T01:04:33;102728.69;;;1.37;100.00
50380;BME280;37474;59.468;18.040;2023-02-15T01:07:05;102731.97;;;1.29;100.00
50380;BME280;37474;59.468;18.040;2023-02-15T01:09:33;102726.97;;;1.37;100.00
50380;BME280;37474;59.468;18.040;2023-02-15T01:12:02;102730.31;;;1.33;100.00
50380;BME280;37474;59.468;18.040;2023-02-15T01:14:34;102725.03;;;1.22;100.00
50380;BME280;37474;59.468;18.040;2023-02-15T01:17:02;102724.09;;;1.20;100.00
50380;BME280;37474;59.468;18.040;2023-02-15T01:19:30;102718.91;;;1.16;100.00
50380;BME280;37474;59.468;18.040;2023-02-15T01:22:01;102723.69;;;1.43;100.00
50380;BME280;37474;59.468;18.040;2023-02-15T01:24:29;102713.97;;;1.23;100.00
50380;BME280;37474;59.468;18.040;2023-02-15T01:26:57;102707.16;;;1.24;100.00
50380;BME280;37474;59.468;18.040;2023-02-15T01:29:30;102708.50;;;1.52;100.00
50380;BME280;37474;59.468;18.040;2023-02-15T01:31:58;102707.50;;;1.44;100.00
50380;BME280;37474;59.468;18.040;2023-02-15T01:34:26;102701.22;;;1.25;100.00
50380;BME280;37474;59.468;18.040;2023-02-15T01:36:58;102680.69;;;1.22;100.00
50380;BME280;37474;59.468;18.040;2023-02-15T01:39:25;102693.47;;;1.22;100.00
50380;BME280;37474;59.468;18.040;2023-02-15T01:41:53;102692.91;;;1.37;100.00
50380;BME280;37474;59.468;18.040;2023-02-15T01:44:49;102695.38;;;1.32;100.00
50380;BME280;37474;59.468;18.040;2023-02-15T01:47:22;102684.25;;;1.28;100.00
50380;BME280;37474;59.468;18.040;2023-02-15T01:50:02;102665.34;;;1.20;100.00
50380;BME280;37474;59.468;18.040;2023-02-15T01:52:31;102687.91;;;1.44;100.00
50380;BME280;37474;59.468;18.040;2023-02-15T01:55:01;102683.75;;;1.49;100.00
50380;BME280;37474;59.468;18.040;2023-02-15T01:57:33;102683.53;;;1.36;100.00
50380;BME280;37474;59.468;18.040;2023-02-15T02:00:07;102679.47;;;1.48;100.00
50380;BME280;37474;59.468;18.040;2023-02-15T02:02:38;102676.13;;;1.51;100.00
50380;BME280;37474;59.468;18.040;2023-02-15T02:05:08;102673.53;;;1.49;100.00
50380;BME280;37474;59.468;18.040;2023-02-15T02:07:39;102669.91;;;1.37;100.00
50380;BME280;37474;59.468;18.040;2023-02-15T02:10:12;102675.09;;;1.41;100.00
50380;BME280;37474;59.468;18.040;2023-02-15T02:12:44;102670.94;;;1.48;100.00
50380;BME280;37474;59.468;18.040;2023-02-15T02:15:16;102671.00;;;1.51;100.00
50380;BME280;37474;59.468;18.040;2023-02-15T02:17:57;102661.75;;;1.59;100.00
50380;BME280;37474;59.468;18.040;2023-02-15T02:23:59;102655.63;;;1.48;100.00
50380;BME280;37474;59.468;18.040;2023-02-15T02:27:01;102655.63;;;1.49;100.00
50380;BME280;37474;59.468;18.040;2023-02-15T02:33:18;102650.56;;;1.51;100.00
50380;BME280;37474;59.468;18.040;2023-02-15T02:35:57;102637.59;;;1.40;100.00
50380;BME280;37474;59.468;18.040;2023-02-15T02:38:36;102639.34;;;1.43;100.00
50380;BME280;37474;59.468;18.040;2023-02-15T02:41:11;102630.03;;;1.45;100.00
50380;BME280;37474;59.468;18.040;2023-02-15T02:43:47;102630.06;;;1.48;100.00
50380;BME280;37474;59.468;18.040;2023-02-15T02:46:22;102628.28;;;1.44;100.00
50380;BME280;37474;59.468;18.040;2023-02-15T02:48:56;102625.97;;;1.57;100.00
50380;BME280;37474;59.468;18.040;2023-02-15T02:51:26;102624.09;;;1.47;100.00
50380;BME280;37474;59.468;18.040;2023-02-15T02:53:59;102616.22;;;1.35;100.00
50380;BME280;37474;59.468;18.040;2023-02-15T02:56:33;102627.47;;;1.45;100.00
50380;BME280;37474;59.468;18.040;2023-02-15T02:59:09;102623.38;;;1.56;100.00
50380;BME280;37474;59.468;18.040;2023-02-15T03:01:43;102623.41;;;1.59;100.00
50380;BME280;37474;59.468;18.040;2023-02-15T03:04:22;102612.34;;;1.60;100.00
50380;BME280;37474;59.468;18.040;2023-02-15T03:06:54;102614.03;;;1.58;100.00
50380;BME280;37474;59.468;18.040;2023-02-15T03:09:29;102614.13;;;1.66;100.00
50380;BME280;37474;59.468;18.040;2023-02-15T03:12:11;102617.53;;;1.65;100.00
50380;BME280;37474;59.468;18.040;2023-02-15T03:14:44;102597.84;;;1.57;100.00
50380;BME280;37474;59.468;18.040;2023-02-15T03:17:15;102608.31;;;1.73;100.00
50380;BME280;37474;59.468;18.040;2023-02-15T03:19:49;102608.00;;;1.53;100.00
50380;BME280;37474;59.468;18.040;2023-02-15T03:22:24;102624.16;;;1.52;100.00
50380;BME280;37474;59.468;18.040;2023-02-15T03:25:05;102613.84;;;1.46;100.00
50380;BME280;37474;59.468;18.040;2023-02-15T03:27:40;102574.66;;;1.45;100.00
50380;BME280;37474;59.468;18.040;2023-02-15T03:30:13;102583.09;;;1.41;100.00
50380;BME280;37474;59.468;18.040;2023-02-15T03:32:46;102609.00;;;1.63;100.00
50380;BME280;37474;59.468;18.040;2023-02-15T03:35:19;102605.59;;;1.62;100.00
50380;BME280;37474;59.468;18.040;2023-02-15T03:37:54;102580.53;;;1.41;100.00
50380;BME280;37474;59.468;18.040;2023-02-15T03:40:29;102602.88;;;1.54;100.00
50380;BME280;37474;59.468;18.040;2023-02-15T03:43:23;102602.88;;;1.53;100.00
50380;BME280;37474;59.468;18.040;2023-02-15T03:45:57;102595.28;;;1.57;100.00
50380;BME280;37474;59.468;18.040;2023-02-15T03:48:31;102593.66;;;1.61;100.00
50380;BME280;37474;59.468;18.040;2023-02-15T03:51:06;102566.25;;;1.55;100.00
50380;BME280;37474;59.468;18.040;2023-02-15T03:53:55;102590.19;;;1.61;100.00
50380;BME280;37474;59.468;18.040;2023-02-15T03:56:27;102585.94;;;1.59;100.00
50380;BME280;37474;59.468;18.040;2023-02-15T03:58:55;102586.84;;;1.63;100.00
50380;BME280;37474;59.468;18.040;2023-02-15T04:01:48;102580.91;;;1.64;100.00
50380;BME280;37474;59.468;18.040;2023-02-15T04:04:34;102572.97;;;1.47;100.00
50380;BME280;37474;59.468;18.040;2023-02-15T04:07:08;102532.66;;;1.29;100.00
50380;BME280;37474;59.468;18.040;2023-02-15T04:09:36;102563.88;;;1.66;100.00
50380;BME280;37474;59.468;18.040;2023-02-15T04:12:24;102560.25;;;1.50;100.00
50380;BME280;37474;59.468;18.040;2023-02-15T04:14:51;102556.09;;;1.58;100.00
50380;BME280;37474;59.468;18.040;2023-02-15T04:17:41;102555.31;;;1.63;100.00
50380;BME280;37474;59.468;18.040;2023-02-15T04:20:09;102546.97;;;1.77;100.00
50380;BME280;37474;59.468;18.040;2023-02-15T04:23:01;102539.22;;;1.71;100.00
50380;BME280;37474;59.468;18.040;2023-02-15T04:25:50;102544.19;;;1.61;100.00
50380;BME280;37474;59.468;18.040;2023-02-15T04:28:22;102544.38;;;1.73;100.00
50380;BME280;37474;59.468;18.040;2023-02-15T04:30:49;102544.38;;;1.73;100.00
50380;BME280;37474;59.468;18.040;2023-02-15T04:33:17;102543.25;;;1.54;100.00
50380;BME280;37474;59.468;18.040;2023-02-15T04:35:49;102537.28;;;1.55;100.00
50380;BME280;37474;59.468;18.040;2023-02-15T04:38:20;102535.56;;;1.52;100.00
50380;BME280;37474;59.468;18.040;2023-02-15T04:40:51;102540.78;;;1.60;100.00
50380;BME280;37474;59.468;18.040;2023-02-15T04:43:19;102538.03;;;1.48;100.00
50380;BME280;37474;59.468;18.040;2023-02-15T04:45:49;102528.00;;;1.60;100.00
50380;BME280;37474;59.468;18.040;2023-02-15T04:48:19;102525.47;;;1.62;100.00
50380;BME280;37474;59.468;18.040;2023-02-15T04:50:47;102536.34;;;1.48;100.00
50380;BME280;37474;59.468;18.040;2023-02-15T04:53:18;102530.34;;;1.45;100.00
50380;BME280;37474;59.468;18.040;2023-02-15T04:55:50;102527.03;;;1.50;100.00
50380;BME280;37474;59.468;18.040;2023-02-15T04:58:20;102520.41;;;1.66;100.00
50380;BME280;37474;59.468;18.040;2023-02-15T05:00:48;102528.69;;;1.50;100.00
50380;BME280;37474;59.468;18.040;2023-02-15T05:03:17;102519.50;;;1.61;100.00
50380;BME280;37474;59.468;18.040;2023-02-15T05:05:47;102526.28;;;1.61;100.00
50380;BME280;37474;59.468;18.040;2023-02-15T05:08:15;102505.66;;;1.47;100.00
50380;BME280;37474;59.468;18.040;2023-02-15T05:10:48;102515.22;;;1.60;100.00
50380;BME280;37474;59.468;18.040;2023-02-15T05:13:18;102518.44;;;1.47;100.00
50380;BME280;37474;59.468;18.040;2023-02-15T05:15:48;102514.84;;;1.36;100.00
50380;BME280;37474;59.468;18.040;2023-02-15T05:18:17;102515.91;;;1.48;100.00
50380;BME280;37474;59.468;18.040;2023-02-15T05:20:47;102517.59;;;1.49;100.00
50380;BME280;37474;59.468;18.040;2023-02-15T05:23:17;102519.22;;;1.43;100.00
50380;BME280;37474;59.468;18.040;2023-02-15T05:25:51;102514.19;;;1.49;100.00
50380;BME280;37474;59.468;18.040;2023-02-15T05:28:38;102507.47;;;1.54;100.00
50380;BME280;37474;59.468;18.040;2023-02-15T05:31:10;102516.03;;;1.56;100.00
50380;BME280;37474;59.468;18.040;2023-02-15T05:33:39;102505.97;;;1.68;100.00
50380;BME280;37474;59.468;18.040;2023-02-15T05:36:09;102509.84;;;1.42;100.00
50380;BME280;37474;59.468;18.040;2023-02-15T05:38:40;102507.53;;;1.60;100.00
50380;BME280;37474;59.468;18.040;2023-02-15T05:41:10;102507.44;;;1.51;100.00
50380;BME280;37474;59.468;18.040;2023-02-15T05:43:40;102484.28;;;1.43;100.00
50380;BME280;37474;59.468;18.040;2023-02-15T05:46:10;102480.81;;;1.38;100.00
50380;BME280;37474;59.468;18.040;2023-02-15T05:48:39;102495.03;;;1.78;100.00
50380;BME280;37474;59.468;18.040;2023-02-15T05:51:10;102499.00;;;1.59;100.00
50380;BME280;37474;59.468;18.040;2023-02-15T05:53:44;102497.53;;;1.75;100.00
50380;BME280;37474;59.468;18.040;2023-02-15T05:56:15;102496.06;;;1.94;100.00
50380;BME280;37474;59.468;18.040;2023-02-15T05:58:43;102475.97;;;1.56;100.00
50380;BME280;37474;59.468;18.040;2023-02-15T06:01:14;102494.75;;;1.58;100.00
50380;BME280;37474;59.468;18.040;2023-02-15T06:03:45;102486.22;;;1.59;100.00
50380;BME280;37474;59.468;18.040;2023-02-15T06:06:13;102489.88;;;1.77;100.00
50380;BME280;37474;59.468;18.040;2023-02-15T06:08:43;102488.72;;;1.55;100.00
50380;BME280;37474;59.468;18.040;2023-02-15T06:11:17;102484.44;;;1.54;100.00
50380;BME280;37474;59.468;18.040;2023-02-15T06:13:44;102490.25;;;1.41;100.00
50380;BME280;37474;59.468;18.040;2023-02-15T06:16:12;102480.84;;;1.40;100.00
50380;BME280;37474;59.468;18.040;2023-02-15T06:18:44;102481.03;;;1.52;100.00
50380;BME280;37474;59.468;18.040;2023-02-15T06:21:12;102484.75;;;1.77;100.00
50380;BME280;37474;59.468;18.040;2023-02-15T06:23:40;102477.63;;;1.53;100.00
50380;BME280;37474;59.468;18.040;2023-02-15T06:26:13;102473.31;;;1.49;100.00
50380;BME280;37474;59.468;18.040;2023-02-15T06:28:42;102473.31;;;1.49;100.00
50380;BME280;37474;59.468;18.040;2023-02-15T06:31:10;102475.28;;;1.68;100.00
50380;BME280;37474;59.468;18.040;2023-02-15T06:33:40;102472.50;;;1.51;100.00
50380;BME280;37474;59.468;18.040;2023-02-15T06:36:10;102463.06;;;1.49;100.00
50380;BME280;37474;59.468;18.040;2023-02-15T06:38:39;102466.38;;;1.42;100.00
50380;BME280;37474;59.468;18.040;2023-02-15T06:41:08;102465.91;;;1.69;100.00
50380;BME280;37474;59.468;18.040;2023-02-15T06:43:38;102459.78;;;1.56;100.00
50380;BME280;37474;59.468;18.040;2023-02-15T06:46:07;102460.81;;;1.70;100.00
50380;BME280;37474;59.468;18.040;2023-02-15T06:48:38;102434.38;;;1.67;100.00
50380;BME280;37474;59.468;18.040;2023-02-15T06:51:07;102462.44;;;1.65;100.00
50380;BME280;37474;59.468;18.040;2023-02-15T06:53:35;102466.06;;;1.81;100.00
50380;BME280;37474;59.468;18.040;2023-02-15T06:56:06;102461.56;;;1.62;100.00
50380;BME280;37474;59.468;18.040;2023-02-15T06:58:37;102471.81;;;1.65;100.00
50380;BME280;37474;59.468;18.040;2023-02-15T07:01:07;102477.84;;;1.70;100.00
50380;BME280;37474;59.468;18.040;2023-02-15T07:03:36;102468.47;;;1.67;100.00
50380;BME280;37474;59.468;18.040;2023-02-15T07:06:05;102467.69;;;1.74;100.00
50380;BME280;37474;59.468;18.040;2023-02-15T07:08:37;102454.84;;;1.71;100.00
50380;BME280;37474;59.468;18.040;2023-02-15T07:11:06;102460.66;;;1.58;100.00
50380;BME280;37474;59.468;18.040;2023-02-15T07:13:55;102477.84;;;1.70;100.00
50380;BME280;37474;59.468;18.040;2023-02-15T07:16:25;102472.16;;;1.91;100.00
50380;BME280;37474;59.468;18.040;2023-02-15T07:18:52;102471.25;;;1.85;100.00
50380;BME280;37474;59.468;18.040;2023-02-15T07:21:22;102463.50;;;1.81;100.00
50380;BME280;37474;59.468;18.040;2023-02-15T07:23:50;102463.56;;;1.84;100.00
50380;BME280;37474;59.468;18.040;2023-02-15T07:26:20;102475.50;;;1.85;100.00
50380;BME280;37474;59.468;18.040;2023-02-15T07:28:52;102469.53;;;1.84;100.00
50380;BME280;37474;59.468;18.040;2023-02-15T07:31:22;102464.53;;;1.95;100.00
50380;BME280;37474;59.468;18.040;2023-02-15T07:33:51;102466.06;;;1.81;100.00
50380;BME280;37474;59.468;18.040;2023-02-15T07:36:22;102471.25;;;1.87;100.00
50380;BME280;37474;59.468;18.040;2023-02-15T07:38:49;102471.25;;;1.89;100.00
50380;BME280;37474;59.468;18.040;2023-02-15T07:41:17;102463.50;;;1.79;100.00
50380;BME280;37474;59.468;18.040;2023-02-15T07:43:47;102464.47;;;1.89;100.00
50380;BME280;37474;59.468;18.040;2023-02-15T07:46:18;102462.84;;;1.99;100.00
50380;BME280;37474;59.468;18.040;2023-02-15T07:49:50;102467.13;;;2.00;100.00
50380;BME280;37474;59.468;18.040;2023-02-15T07:52:40;102456.91;;;2.00;100.00
50380;BME280;37474;59.468;18.040;2023-02-15T07:55:08;102457.84;;;2.08;100.00
50380;BME280;37474;59.468;18.040;2023-02-15T07:57:42;102453.47;;;1.99;100.00
50380;BME280;37474;59.468;18.040;2023-02-15T08:00:11;102451.03;;;2.08;100.00
50380;BME280;37474;59.468;18.040;2023-02-15T08:02:40;102449.41;;;2.14;100.00
50380;BME280;37474;59.468;18.040;2023-02-15T08:05:09;102452.78;;;2.11;100.00
50380;BME280;37474;59.468;18.040;2023-02-15T08:07:39;102443.44;;;2.15;100.00
50380;BME280;37474;59.468;18.040;2023-02-15T08:10:09;102424.59;;;2.06;100.00
50380;BME280;37474;59.468;18.040;2023-02-15T08:12:59;102438.31;;;2.13;100.00
50380;BME280;37474;59.468;18.040;2023-02-15T08:15:29;102445.06;;;2.09;100.00
50380;BME280;37474;59.468;18.040;2023-02-15T08:17:57;102444.34;;;2.18;100.00
50380;BME280;37474;59.468;18.040;2023-02-15T08:20:29;102437.47;;;2.14;100.00
50380;BME280;37474;59.468;18.040;2023-02-15T08:22:58;102429.78;;;2.14;100.00
50380;BME280;37474;59.468;18.040;2023-02-15T08:25:26;102438.25;;;2.07;100.00
50380;BME280;37474;59.468;18.040;2023-02-15T08:27:56;102432.38;;;2.17;100.00
50380;BME280;37474;59.468;18.040;2023-02-15T08:30:26;102434.78;;;2.03;100.00
50380;BME280;37474;59.468;18.040;2023-02-15T08:32:54;102429.66;;;2.05;100.00
50380;BME280;37474;59.468;18.040;2023-02-15T08:35:24;102418.84;;;2.30;100.00
50380;BME280;37474;59.468;18.040;2023-02-15T08:37:55;102424.59;;;2.09;100.00
50380;BME280;37474;59.468;18.040;2023-02-15T08:40:23;102423.69;;;2.01;100.00
50380;BME280;37474;59.468;18.040;2023-02-15T08:42:50;102421.47;;;2.33;100.00
50380;BME280;37474;59.468;18.040;2023-02-15T08:45:20;102416.31;;;2.32;100.00
50380;BME280;37474;59.468;18.040;2023-02-15T08:47:48;102419.75;;;2.34;100.00
50380;BME280;37474;59.468;18.040;2023-02-15T08:50:16;102412.78;;;2.21;100.00
50380;BME280;37474;59.468;18.040;2023-02-15T08:52:44;102416.13;;;2.15;100.00
50380;BME280;37474;59.468;18.040;2023-02-15T08:55:13;102410.19;;;2.16;100.00
50380;BME280;37474;59.468;18.040;2023-02-15T08:57:42;102394.75;;;2.10;100.00
50380;BME280;37474;59.468;18.040;2023-02-15T09:00:12;102408.53;;;2.21;100.00
50380;BME280;37474;59.468;18.040;2023-02-15T09:02:41;102410.22;;;2.19;100.00
50380;BME280;37474;59.468;18.040;2023-02-15T09:05:11;102402.59;;;2.25;100.00
50380;BME280;37474;59.468;18.040;2023-02-15T09:07:40;102407.59;;;2.13;100.00
50380;BME280;37474;59.468;18.040;2023-02-15T09:10:09;102402.66;;;2.31;100.00
50380;BME280;37474;59.468;18.040;2023-02-15T09:12:40;102406.00;;;2.24;100.00
50380;BME280;37474;59.468;18.040;2023-02-15T09:15:12;102411.13;;;2.26;100.00
50380;BME280;37474;59.468;18.040;2023-02-15T09:17:39;102372.75;;;2.24;100.00
50380;BME280;37474;59.468;18.040;2023-02-15T09:20:08;102409.34;;;2.17;100.00
50380;BME280;37474;59.468;18.040;2023-02-15T09:22:39;102401.66;;;2.16;100.00
50380;BME280;37474;59.468;18.040;2023-02-15T09:25:07;102377.91;;;2.29;100.00
50380;BME280;37474;59.468;18.040;2023-02-15T09:27:35;102394.16;;;2.35;100.00
50380;BME280;37474;59.468;18.040;2023-02-15T09:30:09;102394.13;;;2.32;100.00
50380;BME280;37474;59.468;18.040;2023-02-15T09:32:37;102393.25;;;2.29;100.00
50380;BME280;37474;59.468;18.040;2023-02-15T09:35:05;102392.56;;;2.50;100.00
50380;BME280;37474;59.468;18.040;2023-02-15T09:37:37;102390.81;;;2.40;100.00
50380;BME280;37474;59.468;18.040;2023-02-15T09:40:06;102383.97;;;2.42;100.00
50380;BME280;37474;59.468;18.040;2023-02-15T09:42:56;102377.22;;;2.50;100.00
50380;BME280;37474;59.468;18.040;2023-02-15T09:45:47;102385.78;;;2.52;100.00
50380;BME280;37474;59.468;18.040;2023-02-15T09:48:33;102377.38;;;2.67;99.53
50380;BME280;37474;59.468;18.040;2023-02-15T09:51:19;102365.25;;;2.46;99.89
50380;BME280;37474;59.468;18.040;2023-02-15T09:54:04;102362.78;;;2.56;100.00
50380;BME280;37474;59.468;18.040;2023-02-15T09:56:43;102360.19;;;2.55;100.00
50380;BME280;37474;59.468;18.040;2023-02-15T09:59:20;102342.97;;;2.35;100.00
50380;BME280;37474;59.468;18.040;2023-02-15T10:02:02;102359.28;;;2.45;100.00
50380;BME280;37474;59.468;18.040;2023-02-15T10:04:46;102356.72;;;2.47;100.00
50380;BME280;37474;59.468;18.040;2023-02-15T10:07:35;102327.59;;;2.32;100.00
50380;BME280;37474;59.468;18.040;2023-02-15T10:10:19;102351.56;;;2.44;100.00
50380;BME280;37474;59.468;18.040;2023-02-15T10:13:07;102349.03;;;2.45;100.00
50380;BME280;37474;59.468;18.040;2023-02-15T10:15:50;102345.63;;;2.48;100.00
50380;BME280;37474;59.468;18.040;2023-02-15T10:18:37;102332.06;;;2.58;100.00
50380;BME280;37474;59.468;18.040;2023-02-15T10:21:15;102330.28;;;2.48;100.00
50380;BME280;37474;59.468;18.040;2023-02-15T10:24:07;102338.00;;;2.51;100.00
50380;BME280;37474;59.468;18.040;2023-02-15T10:26:43;102322.66;;;2.57;100.00
50380;BME280;37474;59.468;18.040;2023-02-15T10:29:24;102327.06;;;2.73;100.00
50380;BME280;37474;59.468;18.040;2023-02-15T10:32:00;102319.34;;;2.72;98.93
50380;BME280;37474;59.468;18.040;2023-02-15T10:34:38;102315.91;;;2.68;99.63
50380;BME280;37474;59.468;18.040;2023-02-15T10:37:21;102314.13;;;2.59;100.00
50380;BME280;37474;59.468;18.040;2023-02-15T10:40:01;102312.53;;;2.74;99.39
50380;BME280;37474;59.468;18.040;2023-02-15T10:42:41;102307.38;;;2.69;99.09
50380;BME280;37474;59.468;18.040;2023-02-15T10:45:22;102310.72;;;2.60;100.00
50380;BME280;37474;59.468;18.040;2023-02-15T10:48:09;102308.28;;;2.74;99.33
50380;BME280;37474;59.468;18.040;2023-02-15T10:50:47;102311.50;;;2.47;100.00
50380;BME280;37474;59.468;18.040;2023-02-15T10:53:39;102307.22;;;2.46;100.00
50380;BME280;37474;59.468;18.040;2023-02-15T10:56:19;102298.81;;;2.64;100.00
50380;BME280;37474;59.468;18.040;2023-02-15T10:59:01;102305.66;;;2.65;100.00
50380;BME280;37474;59.468;18.040;2023-02-15T11:01:41;102281.75;;;2.66;99.43
50380;BME280;37474;59.468;18.040;2023-02-15T11:04:40;102271.59;;;2.78;98.64
50380;BME280;37474;59.468;18.040;2023-02-15T11:07:16;102287.75;;;2.70;99.66
50380;BME280;37474;59.468;18.040;2023-02-15T11:09:48;102260.38;;;2.56;99.97
50380;BME280;37474;59.468;18.040;2023-02-15T11:12:20;102286.91;;;2.69;99.91
50380;BME280;37474;59.468;18.040;2023-02-15T11:14:52;102275.78;;;2.64;100.00
50380;BME280;37474;59.468;18.040;2023-02-15T11:17:27;102280.88;;;2.64;100.00
50380;BME280;37474;59.468;18.040;2023-02-15T11:20:00;102244.03;;;2.36;100.00
50380;BME280;37474;59.468;18.040;2023-02-15T11:22:33;102280.06;;;2.68;100.00
50380;BME280;37474;59.468;18.040;2023-02-15T11:25:04;102280.94;;;2.69;99.95
50380;BME280;37474;59.468;18.040;2023-02-15T11:27:43;102260.38;;;2.56;100.00
50380;BME280;37474;59.468;18.040;2023-02-15T11:30:19;102275.03;;;2.83;99.33
50380;BME280;37474;59.468;18.040;2023-02-15T11:32:52;102257.09;;;2.80;99.76
50380;BME280;37474;59.468;18.040;2023-02-15T11:35:27;102270.75;;;2.81;98.32
50380;BME280;37474;59.468;18.040;2023-02-15T11:38:04;102269.91;;;2.86;99.16
50380;BME280;37474;59.468;18.040;2023-02-15T11:40:43;102258.03;;;3.01;97.99
50380;BME280;37474;59.468;18.040;2023-02-15T11:43:17;102234.09;;;2.89;96.72
50380;BME280;37474;59.468;18.040;2023-02-15T11:45:50;102250.31;;;2.99;97.22
50380;BME280;37474;59.468;18.040;2023-02-15T11:48:20;102243.50;;;3.00;97.64
50380;BME280;37474;59.468;18.040;2023-02-15T11:50:50;102251.16;;;2.94;98.10
50380;BME280;37474;59.468;18.040;2023-02-15T11:53:21;102246.09;;;3.04;96.93
50380;BME280;37474;59.468;18.040;2023-02-15T11:55:56;102245.22;;;2.95;97.86
50380;BME280;37474;59.468;18.040;2023-02-15T11:58:30;102247.72;;;2.88;98.24
50380;BME280;37474;59.468;18.040;2023-02-15T12:01:10;102232.22;;;2.59;99.80
50380;BME280;37474;59.468;18.040;2023-02-15T12:03:45;102242.50;;;2.67;99.84
50380;BME280;37474;59.468;18.040;2023-02-15T12:06:22;102249.38;;;2.76;99.60
50380;BME280;37474;59.468;18.040;2023-02-15T12:08:58;102245.09;;;2.75;99.95
50380;BME280;37474;59.468;18.040;2023-02-15T12:11:33;102239.94;;;2.69;100.00
50380;BME280;37474;59.468;18.040;2023-02-15T12:14:04;102221.94;;;2.55;100.00
50380;BME280;37474;59.468;18.040;2023-02-15T12:16:41;102234.84;;;2.75;100.00
50380;BME280;37474;59.468;18.040;2023-02-15T12:19:29;102231.41;;;2.67;100.00
50380;BME280;37474;59.468;18.040;2023-02-15T12:22:02;102222.03;;;2.67;100.00
50380;BME280;37474;59.468;18.040;2023-02-15T12:24:34;102227.09;;;2.58;100.00
50380;BME280;37474;59.468;18.040;2023-02-15T12:27:14;102221.19;;;2.77;100.00
50380;BME280;37474;59.468;18.040;2023-02-15T12:29:46;102223.75;;;2.73;100.00
50380;BME280;37474;59.468;18.040;2023-02-15T12:32:22;102221.22;;;2.82;100.00
50380;BME280;37474;59.468;18.040;2023-02-15T12:34:55;102215.25;;;2.78;100.00
50380;BME280;37474;59.468;18.040;2023-02-15T12:37:31;102216.88;;;2.64;100.00
50380;BME280;37474;59.468;18.040;2023-02-15T12:40:20;102208.38;;;2.67;100.00
50380;BME280;37474;59.468;18.040;2023-02-15T12:42:50;102209.16;;;2.59;100.00
50380;BME280;37474;59.468;18.040;2023-02-15T12:45:24;102193.84;;;2.61;100.00
50380;BME280;37474;59.468;18.040;2023-02-15T12:48:14;102204.06;;;2.56;100.00
50380;BME280;37474;59.468;18.040;2023-02-15T12:50:44;102200.59;;;2.51;100.00
50380;BME280;37474;59.468;18.040;2023-02-15T12:53:36;102200.69;;;2.71;100.00
50380;BME280;37474;59.468;18.040;2023-02-15T12:56:07;102190.44;;;2.62;100.00
50380;BME280;37474;59.468;18.040;2023-02-15T12:58:41;102181.81;;;2.45;100.00
50380;BME280;37474;59.468;18.040;2023-02-15T13:01:14;102189.56;;;2.64;100.00
50380;BME280;37474;59.468;18.040;2023-02-15T13:03:55;102181.06;;;2.76;100.00
50380;BME280;37474;59.468;18.040;2023-02-15T13:06:25;102190.44;;;2.70;100.00
50380;BME280;37474;59.468;18.040;2023-02-15T13:08:59;102156.22;;;2.46;100.00
50380;BME280;37474;59.468;18.040;2023-02-15T13:11:41;102183.56;;;2.59;100.00
50380;BME280;37474;59.468;18.040;2023-02-15T13:14:17;102169.84;;;2.45;100.00
50380;BME280;37474;59.468;18.040;2023-02-15T13:16:48;102173.22;;;2.35;100.00
50380;BME280;37474;59.468;18.040;2023-02-15T13:19:26;102173.28;;;2.47;100.00
50380;BME280;37474;59.468;18.040;2023-02-15T13:21:57;102173.16;;;2.24;100.00